createdAt,value
2023-03-12T00:00:48.833Z,13.00
2023-03-12T00:03:17.656Z,13.23
2023-03-12T00:05:53.400Z,13.28
2023-03-12T00:08:20.108Z,12.97
2023-03-12T00:10:53.618Z,13.09
2023-03-12T00:13:27.560Z,12.93
2023-03-12T00:15:57.342Z,12.86
2023-03-12T00:18:27.001Z,12.45
2023-03-12T00:20:55.013Z,12.84
2023-03-12T00:23:26.043Z,12.78
2023-03-12T00:26:03.814Z,12.71
2023-03-12T00:28:31.306Z,12.77
2023-03-12T00:30:58.817Z,12.75
2023-03-12T00:33:26.276Z,12.54
2023-03-12T00:35:53.976Z,12.54
2023-03-12T00:38:23.400Z,12.31
2023-03-12T00:40:50.137Z,12.73
2023-03-12T00:43:16.790Z,12.79
2023-03-12T00:45:43.413Z,12.84
2023-03-12T00:48:10.234Z,12.82
2023-03-12T00:50:36.970Z,12.87
2023-03-12T00:53:12.836Z,12.57
2023-03-12T00:55:44.412Z,12.80
2023-03-12T00:58:11.232Z,12.77
2023-03-12T01:00:38.029Z,12.44
2023-03-12T01:03:04.856Z,12.57
2023-03-12T01:05:34.105Z,12.47
2023-03-12T01:08:01.803Z,12.31
2023-03-12T01:10:30.410Z,12.29
2023-03-12T01:13:02.132Z,12.14
2023-03-12T01:15:32.071Z,12.31
2023-03-12T01:17:58.812Z,12.08
2023-03-12T01:20:25.964Z,11.38
2023-03-12T01:23:00.523Z,12.00
2023-03-12T01:25:27.370Z,11.94
2023-03-12T01:27:54.309Z,11.88
2023-03-12T01:30:20.929Z,11.66
2023-03-12T01:32:47.746Z,11.28
2023-03-12T01:35:15.776Z,11.74
2023-03-12T01:37:42.545Z,11.85
2023-03-12T01:40:16.193Z,11.48
2023-03-12T01:42:52.731Z,11.82
2023-03-12T01:46:13.876Z,11.80
2023-03-12T01:49:04.539Z,11.74
2023-03-12T01:51:39.604Z,11.49
2023-03-12T01:54:11.860Z,11.82
2023-03-12T01:56:42.344Z,11.34
2023-03-12T01:59:20.372Z,11.94
2023-03-12T02:01:48.498Z,11.71
2023-03-12T02:04:20.813Z,11.74
2023-03-12T02:06:54.885Z,11.24
2023-03-12T02:09:22.130Z,11.89
2023-03-12T02:11:56.665Z,11.92
2023-03-12T02:14:29.472Z,11.70
2023-03-12T02:16:59.935Z,11.88
2023-03-12T02:19:40.531Z,11.76
2023-03-12T02:22:08.042Z,11.71
2023-03-12T02:24:52.761Z,11.84
2023-03-12T02:27:21.351Z,11.79
2023-03-12T02:29:54.811Z,11.62
2023-03-12T02:32:28.130Z,11.29
2023-03-12T02:34:57.538Z,11.38
2023-03-12T02:37:24.251Z,11.27
2023-03-12T02:39:58.351Z,11.76
2023-03-12T02:42:25.570Z,11.66
2023-03-12T02:44:52.404Z,10.98
2023-03-12T02:47:19.288Z,11.70
2023-03-12T02:49:49.118Z,11.33
2023-03-12T02:52:24.596Z,11.64
2023-03-12T02:54:58.444Z,11.56
2023-03-12T02:57:27.857Z,11.51
2023-03-12T02:59:56.114Z,11.23
2023-03-12T03:02:23.090Z,11.40
2023-03-12T03:04:50.228Z,11.26
2023-03-12T03:07:17.390Z,11.40
2023-03-12T03:10:00.032Z,11.44
2023-03-12T03:12:26.809Z,10.46
2023-03-12T03:15:02.373Z,11.23
2023-03-12T03:17:29.610Z,11.30
2023-03-12T03:19:56.634Z,11.24
2023-03-12T03:22:23.404Z,10.74
2023-03-12T03:24:50.172Z,11.17
2023-03-12T03:27:16.970Z,11.26
2023-03-12T03:29:46.442Z,11.12
2023-03-12T03:32:22.795Z,10.86
2023-03-12T03:34:55.434Z,11.08
2023-03-12T03:37:22.085Z,10.81
2023-03-12T03:39:48.744Z,10.65
2023-03-12T03:42:15.441Z,11.05
2023-03-12T03:44:42.303Z,11.02
2023-03-12T03:47:11.056Z,11.16
2023-03-12T03:49:39.053Z,11.23
2023-03-12T03:52:06.595Z,11.18
2023-03-12T03:54:34.922Z,11.19
2023-03-12T03:57:04.761Z,11.36
2023-03-12T03:59:39.580Z,11.44
2023-03-12T04:02:06.954Z,11.51
2023-03-12T04:04:33.780Z,11.48
2023-03-12T04:07:00.582Z,11.50
2023-03-12T04:09:40.856Z,11.38
2023-03-12T04:12:10.760Z,11.57
2023-03-12T04:14:40.420Z,11.51
2023-03-12T04:17:09.312Z,11.26
2023-03-12T04:19:36.444Z,11.02
2023-03-12T04:22:07.215Z,11.67
2023-03-12T04:24:34.065Z,11.30
2023-03-12T04:27:00.778Z,11.57
2023-03-12T04:29:27.916Z,11.53
2023-03-12T04:32:01.092Z,11.57
2023-03-12T04:34:34.920Z,11.45
2023-03-12T04:37:16.584Z,11.47
2023-03-12T04:39:46.826Z,11.42
2023-03-12T04:42:13.962Z,11.41
2023-03-12T04:44:41.196Z,11.45
2023-03-12T04:47:07.900Z,11.43
2023-03-12T04:49:37.819Z,11.01
2023-03-12T04:52:07.958Z,11.34
2023-03-12T04:54:34.784Z,11.25
2023-03-12T04:57:01.520Z,11.53
2023-03-12T04:59:28.330Z,11.58
2023-03-12T05:01:58.481Z,11.47
2023-03-12T05:04:25.207Z,11.39
2023-03-12T05:06:54.384Z,11.48
2023-03-12T05:09:21.206Z,11.46
2023-03-12T05:11:48.306Z,11.35
2023-03-12T05:14:25.700Z,10.93
2023-03-12T05:16:54.197Z,10.65
2023-03-12T05:19:25.047Z,11.21
2023-03-12T05:21:58.942Z,11.26
2023-03-12T05:24:29.316Z,11.21
2023-03-12T05:26:56.054Z,11.55
2023-03-12T05:29:22.750Z,11.40
2023-03-12T05:31:57.735Z,11.33
2023-03-12T05:34:28.259Z,11.58
2023-03-12T05:36:54.996Z,11.04
2023-03-12T05:39:22.024Z,11.29
2023-03-12T05:41:48.757Z,11.36
2023-03-12T05:44:16.247Z,11.28
2023-03-12T05:46:43.846Z,11.22
2023-03-12T05:49:12.543Z,11.26
2023-03-12T05:51:39.227Z,11.33
2023-03-12T05:54:06.098Z,11.29
2023-03-12T05:56:40.956Z,11.51
2023-03-12T05:59:18.564Z,11.38
2023-03-12T06:01:45.245Z,11.22
2023-03-12T06:04:23.644Z,11.62
2023-03-12T06:06:50.279Z,11.74
2023-03-12T06:09:16.975Z,11.79
2023-03-12T06:11:49.872Z,11.64
2023-03-12T06:14:16.659Z,11.64
2023-03-12T06:16:43.450Z,11.37
2023-03-12T06:19:19.927Z,11.23
2023-03-12T06:21:47.139Z,11.63
2023-03-12T06:24:23.711Z,11.66
2023-03-12T06:26:50.709Z,11.99
2023-03-12T06:29:17.539Z,11.63
2023-03-12T06:31:52.659Z,12.03
2023-03-12T06:34:20.697Z,12.06
2023-03-12T06:36:47.394Z,11.88
2023-03-12T06:39:19.952Z,11.74
2023-03-12T06:41:49.920Z,12.04
2023-03-12T06:44:19.391Z,11.77
2023-03-12T06:46:52.425Z,11.90
2023-03-12T06:49:19.671Z,11.57
2023-03-12T06:51:46.876Z,11.96
2023-03-12T06:54:13.559Z,11.39
2023-03-12T06:56:43.413Z,11.79
2023-03-12T06:59:12.565Z,11.85
2023-03-12T07:01:39.307Z,11.72
2023-03-12T07:04:06.057Z,11.98
2023-03-12T07:06:32.933Z,11.60
2023-03-12T07:09:02.005Z,12.33
2023-03-12T07:11:28.747Z,12.43
2023-03-12T07:13:55.492Z,11.96
2023-03-12T07:16:28.801Z,12.38
2023-03-12T07:18:59.265Z,12.32
2023-03-12T07:21:30.075Z,12.38
2023-03-12T07:26:37.279Z,12.41
2023-03-12T07:29:09.449Z,12.49
2023-03-12T07:31:36.429Z,12.53
2023-03-12T07:34:06.754Z,12.54
2023-03-12T07:36:34.569Z,12.74
2023-03-12T07:39:01.348Z,12.43
2023-03-12T07:41:30.514Z,12.44
2023-03-12T07:43:57.269Z,12.33
2023-03-12T07:46:26.914Z,12.88
2023-03-12T07:48:53.719Z,12.57
2023-03-12T07:51:20.556Z,12.42
2023-03-12T07:53:51.711Z,12.79
2023-03-12T07:56:18.699Z,13.07
2023-03-12T07:58:45.678Z,13.56
2023-03-12T08:01:20.102Z,13.39
2023-03-12T08:03:50.441Z,13.17
2023-03-12T08:06:17.248Z,13.20
2023-03-12T08:08:44.290Z,13.21
2023-03-12T08:11:11.296Z,13.09
2023-03-12T08:13:40.217Z,13.29
2023-03-12T08:16:12.715Z,13.56
2023-03-12T08:18:39.662Z,13.78
2023-03-12T08:21:06.495Z,13.35
2023-03-12T08:23:41.753Z,14.04
2023-03-12T08:26:08.777Z,13.89
2023-03-12T08:28:35.847Z,13.77
2023-03-12T08:31:02.869Z,13.67
2023-03-12T08:33:32.937Z,13.69
2023-03-12T08:35:59.762Z,13.47
2023-03-12T08:38:34.979Z,13.57
2023-03-12T08:41:02.058Z,13.78
2023-03-12T08:43:29.650Z,12.43
2023-03-12T08:45:58.913Z,13.49
2023-03-12T08:48:38.923Z,13.53
2023-03-12T08:51:09.775Z,13.47
2023-03-12T08:53:37.275Z,13.94
2023-03-12T08:56:07.164Z,13.28
2023-03-12T08:58:49.815Z,13.86
2023-03-12T09:01:16.599Z,13.38
2023-03-12T09:03:43.414Z,14.07
2023-03-12T09:06:19.155Z,14.11
2023-03-12T09:08:47.209Z,14.51
2023-03-12T09:11:17.545Z,14.44
2023-03-12T09:14:26.521Z,14.59
2023-03-12T09:16:34.866Z,14.77
2023-03-12T09:19:01.833Z,15.05
2023-03-12T09:21:29.044Z,15.08
2023-03-12T09:23:56.082Z,15.11
2023-03-12T09:26:22.898Z,15.16
2023-03-12T09:28:57.971Z,15.21
2023-03-12T09:31:25.348Z,14.65
2023-03-12T09:33:57.469Z,15.45
2023-03-12T09:36:24.574Z,15.44
2023-03-12T09:38:51.268Z,15.47
2023-03-12T09:41:29.970Z,14.10
2023-03-12T09:44:12.240Z,15.17
2023-03-12T09:46:45.083Z,15.65
2023-03-12T09:49:34.751Z,15.41
2023-03-12T09:52:34.554Z,15.42
2023-03-12T09:55:16.864Z,15.40
2023-03-12T09:57:45.004Z,15.41
2023-03-12T10:00:15.603Z,15.36
2023-03-12T10:03:20.177Z,15.46
2023-03-12T10:06:06.955Z,15.83
2023-03-12T10:08:39.040Z,15.60
2023-03-12T10:11:34.130Z,16.09
2023-03-12T10:14:24.136Z,16.25
2023-03-12T10:17:16.872Z,16.20
2023-03-12T10:20:17.388Z,15.99
2023-03-12T10:23:02.933Z,16.25
2023-03-12T10:26:02.152Z,16.26
2023-03-12T10:28:42.830Z,16.02
2023-03-12T10:31:43.329Z,15.86
2023-03-12T10:34:30.985Z,16.47
2023-03-12T10:37:03.085Z,16.18
2023-03-12T10:39:29.762Z,15.86
2023-03-12T10:42:01.458Z,16.38
2023-03-12T10:44:29.120Z,16.71
2023-03-12T10:47:24.386Z,16.30
2023-03-12T10:49:54.330Z,16.29
2023-03-12T10:52:24.166Z,16.25
2023-03-12T10:54:59.243Z,16.43
2023-03-12T10:57:40.634Z,16.10
2023-03-12T11:00:18.552Z,17.01
2023-03-12T11:02:46.607Z,17.14
2023-03-12T11:05:34.245Z,16.61
2023-03-12T11:08:13.322Z,16.86
2023-03-12T11:10:49.224Z,16.85
2023-03-12T11:13:43.964Z,16.36
2023-03-12T11:16:10.694Z,17.00
2023-03-12T11:18:38.866Z,16.57
2023-03-12T11:21:10.000Z,17.02
2023-03-12T11:24:09.557Z,16.73
2023-03-12T11:26:54.528Z,17.35
2023-03-12T11:29:37.071Z,17.05
2023-03-12T11:32:25.944Z,17.36
2023-03-12T11:34:53.339Z,17.51
2023-03-12T11:37:27.238Z,17.28
2023-03-12T11:40:16.349Z,17.65
2023-03-12T11:43:07.643Z,17.08
2023-03-12T11:45:58.308Z,17.33
2023-03-12T11:48:43.553Z,17.21
2023-03-12T11:52:17.273Z,17.23
2023-03-12T11:55:18.296Z,17.26
2023-03-12T11:58:24.588Z,17.15
2023-03-12T12:01:08.113Z,17.21
2023-03-12T12:03:56.209Z,16.81
2023-03-12T12:06:54.404Z,16.75
2023-03-12T12:09:34.783Z,16.83
2023-03-12T12:12:36.626Z,17.00
2023-03-12T12:15:04.065Z,16.87
2023-03-12T12:17:33.683Z,16.86
2023-03-12T12:20:38.425Z,16.80
2023-03-12T12:23:15.925Z,16.74
2023-03-12T12:26:15.353Z,16.98
2023-03-12T12:29:22.148Z,16.90
2023-03-12T12:31:57.423Z,16.66
2023-03-12T12:35:02.022Z,17.04
2023-03-12T12:37:53.423Z,16.71
2023-03-12T12:40:34.677Z,16.59
2023-03-12T12:43:18.708Z,16.70
2023-03-12T12:45:48.686Z,16.57
2023-03-12T12:48:53.669Z,16.34
2023-03-12T12:51:31.485Z,16.56
2023-03-12T12:54:20.340Z,16.39
2023-03-12T12:57:04.632Z,16.58
2023-03-12T12:59:58.013Z,16.43
2023-03-12T13:02:35.168Z,15.89
2023-03-12T13:05:24.586Z,16.19
2023-03-12T13:07:51.390Z,16.16
2023-03-12T13:11:02.503Z,16.21
2023-03-12T13:14:35.029Z,16.47
2023-03-12T13:17:30.346Z,16.36
2023-03-12T13:20:08.630Z,16.03
2023-03-12T13:22:49.744Z,16.63
2023-03-12T13:25:49.653Z,16.39
2023-03-12T13:28:51.829Z,16.37
2023-03-12T13:31:25.103Z,16.59
2023-03-12T13:34:00.049Z,16.58
2023-03-12T13:36:31.283Z,16.54
2023-03-12T13:39:07.040Z,16.26
2023-03-12T13:41:45.915Z,16.46
2023-03-12T13:44:25.460Z,16.53
2023-03-12T13:47:01.401Z,16.35
2023-03-12T13:50:05.144Z,16.37
2023-03-12T13:52:47.069Z,16.19
2023-03-12T13:55:27.873Z,16.41
2023-03-12T13:58:10.396Z,16.42
2023-03-12T14:00:48.418Z,16.27
2023-03-12T14:03:27.419Z,16.35
2023-03-12T14:06:11.113Z,16.26
2023-03-12T14:08:53.144Z,16.24
2023-03-12T14:11:45.463Z,16.23
2023-03-12T14:14:28.664Z,15.93
2023-03-12T14:17:10.979Z,16.16
2023-03-12T14:19:51.685Z,16.36
2023-03-12T14:22:33.775Z,16.24
2023-03-12T14:25:12.895Z,16.24
2023-03-12T14:27:55.025Z,16.41
2023-03-12T14:30:51.406Z,16.34
2023-03-12T14:33:25.102Z,16.34
2023-03-12T14:36:03.668Z,16.36
2023-03-12T14:38:32.973Z,16.21
2023-03-12T14:41:14.132Z,16.46
2023-03-12T14:43:43.599Z,16.63
2023-03-12T14:46:16.983Z,16.74
2023-03-12T14:48:47.226Z,16.58
2023-03-12T14:51:41.739Z,16.23
2023-03-12T14:54:18.303Z,16.40
2023-03-12T14:56:56.275Z,15.81
2023-03-12T14:59:40.896Z,16.13
2023-03-12T15:05:18.103Z,16.05
2023-03-12T15:07:49.192Z,16.22
2023-03-12T15:10:30.717Z,16.18
2023-03-12T15:13:02.712Z,15.83
2023-03-12T15:15:40.371Z,16.23
2023-03-12T15:18:38.277Z,15.99
2023-03-12T15:21:11.271Z,15.98
2023-03-12T15:23:39.435Z,15.89
2023-03-12T15:26:10.366Z,16.47
2023-03-12T15:28:40.541Z,16.36
2023-03-12T15:31:25.821Z,16.28
2023-03-12T15:34:11.464Z,16.37
2023-03-12T15:36:48.741Z,16.16
2023-03-12T15:39:15.412Z,16.22
2023-03-12T15:42:02.678Z,16.27
2023-03-12T15:44:54.625Z,16.31
2023-03-12T15:47:48.097Z,16.14
2023-03-12T15:50:27.734Z,16.12
2023-03-12T15:53:31.206Z,16.01
2023-03-12T15:59:32.069Z,16.24
2023-03-12T16:02:01.560Z,16.15
2023-03-12T16:04:48.579Z,15.68
2023-03-12T16:07:17.682Z,16.01
2023-03-12T16:09:47.465Z,16.00
2023-03-12T16:12:17.116Z,16.15
2023-03-12T16:15:01.903Z,15.98
2023-03-12T16:17:31.335Z,16.25
2023-03-12T16:19:57.939Z,16.19
2023-03-12T16:22:27.885Z,16.01
2023-03-12T16:24:56.593Z,16.03
2023-03-12T16:27:32.544Z,15.97
2023-03-12T16:29:59.782Z,16.31
2023-03-12T16:32:38.708Z,16.18
2023-03-12T16:35:35.520Z,15.82
2023-03-12T16:38:12.298Z,16.03
2023-03-12T16:40:43.546Z,15.64
2023-03-12T16:43:25.320Z,15.66
2023-03-12T16:48:39.744Z,15.67
2023-03-12T16:51:21.268Z,15.74
2023-03-12T16:53:55.843Z,15.71
2023-03-12T16:56:32.458Z,15.64
2023-03-12T16:59:04.929Z,15.41
2023-03-12T17:01:38.006Z,15.42
2023-03-12T17:04:10.591Z,15.86
2023-03-12T17:06:40.578Z,15.54
2023-03-12T17:09:15.862Z,15.12
2023-03-12T17:11:45.186Z,15.71
2023-03-12T17:14:43.292Z,15.67
2023-03-12T17:17:10.114Z,15.94
2023-03-12T17:22:40.651Z,16.03
2023-03-12T17:25:19.467Z,15.22
2023-03-12T17:27:46.211Z,16.09
2023-03-12T17:30:20.364Z,15.81
2023-03-12T17:32:49.044Z,15.86
2023-03-12T17:35:18.964Z,15.69
2023-03-12T17:37:48.466Z,15.80
2023-03-12T17:40:18.285Z,15.50
2023-03-12T17:42:45.016Z,15.46
2023-03-12T17:45:11.807Z,15.82
2023-03-12T17:47:44.385Z,15.70
2023-03-12T17:50:12.943Z,15.11
2023-03-12T17:52:39.708Z,15.51
2023-03-12T17:55:13.939Z,15.59
2023-03-12T17:57:40.887Z,15.28
2023-03-12T18:00:13.232Z,15.19
2023-03-12T18:03:04.831Z,15.44
2023-03-12T18:05:42.796Z,15.27
2023-03-12T18:08:17.663Z,15.04
2023-03-12T18:13:57.598Z,14.68
2023-03-12T18:16:27.321Z,14.94
2023-03-12T18:18:54.116Z,15.10
2023-03-12T18:21:39.105Z,15.02
2023-03-12T18:24:13.958Z,15.23
2023-03-12T18:26:48.071Z,15.05
2023-03-12T18:29:29.557Z,14.95
2023-03-12T18:32:09.544Z,14.99
2023-03-12T18:37:23.047Z,14.62
2023-03-12T18:39:49.688Z,14.85
2023-03-12T18:42:21.819Z,14.84
2023-03-12T18:44:51.466Z,14.29
2023-03-12T18:47:19.008Z,14.53
2023-03-12T18:49:55.074Z,14.66
2023-03-12T18:52:24.734Z,14.38
2023-03-12T18:54:51.475Z,14.32
2023-03-12T18:57:18.248Z,14.50
2023-03-12T18:59:50.206Z,14.67
2023-03-12T19:02:17.059Z,14.84
2023-03-12T19:04:44.247Z,14.72
2023-03-12T19:07:11.236Z,14.90
2023-03-12T19:09:37.959Z,14.90
2023-03-12T19:12:04.981Z,14.66
2023-03-12T19:14:31.790Z,14.60
2023-03-12T19:16:58.509Z,14.45
2023-03-12T19:19:25.199Z,14.39
2023-03-12T19:21:52.097Z,14.31
2023-03-12T19:24:18.842Z,14.23
2023-03-12T19:26:45.620Z,14.27
2023-03-12T19:29:17.271Z,14.51
2023-03-12T19:31:46.230Z,14.64
2023-03-12T19:34:17.440Z,14.61
2023-03-12T19:36:46.884Z,14.78
2023-03-12T19:39:21.066Z,14.63
2023-03-12T19:41:48.771Z,14.06
2023-03-12T19:44:15.524Z,13.96
2023-03-12T19:46:52.506Z,14.06
2023-03-12T19:52:11.533Z,13.73
2023-03-12T19:54:38.162Z,12.90
2023-03-12T19:57:09.256Z,13.52
2023-03-12T19:59:36.141Z,13.66
2023-03-12T20:02:07.272Z,13.44
2023-03-12T20:04:37.168Z,13.39
2023-03-12T20:07:03.944Z,13.30
2023-03-12T20:09:45.846Z,13.00
2023-03-12T20:12:12.551Z,12.86
2023-03-12T20:14:48.441Z,12.98
2023-03-12T20:17:18.177Z,12.96
2023-03-12T20:19:47.941Z,13.20
2023-03-12T20:22:15.923Z,13.13
2023-03-12T20:24:49.655Z,13.02
2023-03-12T20:27:25.795Z,13.31
2023-03-12T20:32:40.431Z,13.07
2023-03-12T20:35:07.307Z,12.83
2023-03-12T20:37:33.971Z,12.77
2023-03-12T20:40:08.512Z,12.95
2023-03-12T20:42:50.610Z,12.64
2023-03-12T20:45:17.207Z,13.33
2023-03-12T20:47:43.946Z,13.25
2023-03-12T20:50:13.929Z,13.08
2023-03-12T20:52:40.616Z,12.97
2023-03-12T20:55:13.531Z,12.57
2023-03-12T21:00:32.683Z,12.61
2023-03-12T21:03:02.420Z,12.52
2023-03-12T21:05:32.542Z,12.34
2023-03-12T21:07:59.304Z,12.03
2023-03-12T21:10:31.476Z,12.48
2023-03-12T21:13:04.128Z,12.55
2023-03-12T21:15:33.895Z,12.50
2023-03-12T21:18:03.663Z,12.36
2023-03-12T21:20:36.493Z,12.00
2023-03-12T21:23:09.793Z,12.09
2023-03-12T21:25:42.907Z,12.03
2023-03-12T21:28:10.747Z,11.97
2023-03-12T21:30:46.539Z,11.74
2023-03-12T21:33:45.152Z,11.93
2023-03-12T21:39:33.142Z,12.00
2023-03-12T21:42:05.706Z,11.50
2023-03-12T21:44:35.154Z,11.72
2023-03-12T21:47:01.929Z,11.97
2023-03-12T21:49:28.585Z,11.65
2023-03-12T21:51:58.294Z,11.93
2023-03-12T21:54:35.792Z,12.14
2023-03-12T21:57:06.010Z,11.96
2023-03-12T21:59:32.913Z,12.30
2023-03-12T22:02:02.794Z,12.23
2023-03-12T22:07:19.139Z,11.95
2023-03-12T22:10:00.514Z,12.17
2023-03-12T22:12:30.398Z,12.24
2023-03-12T22:14:56.998Z,12.19
2023-03-12T22:20:13.495Z,12.19
2023-03-12T22:22:42.239Z,11.83
2023-03-12T22:25:09.137Z,11.51
2023-03-12T22:27:44.054Z,11.62
2023-03-12T22:30:23.318Z,11.47
2023-03-12T22:32:52.310Z,11.74
2023-03-12T22:35:25.775Z,11.73
2023-03-12T22:37:55.864Z,11.89
2023-03-12T22:40:22.593Z,12.14
2023-03-12T22:43:06.208Z,12.15
2023-03-12T22:45:38.030Z,11.98
2023-03-12T22:48:04.966Z,11.89
2023-03-12T22:50:32.021Z,12.13
2023-03-12T22:52:59.206Z,11.95
2023-03-12T22:55:26.214Z,11.93
2023-03-12T22:57:53.270Z,11.24
2023-03-12T23:00:39.064Z,11.50
2023-03-12T23:03:29.067Z,11.28
2023-03-12T23:08:40.191Z,11.14
2023-03-12T23:11:18.161Z,11.07
2023-03-12T23:13:54.247Z,10.83
2023-03-12T23:16:23.268Z,10.91
2023-03-12T23:18:57.896Z,10.66
2023-03-12T23:21:25.124Z,10.76
2023-03-12T23:23:54.898Z,10.65
2023-03-12T23:26:24.628Z,10.66
2023-03-12T23:31:50.047Z,10.19
2023-03-12T23:34:22.775Z,10.48
2023-03-12T23:39:54.871Z,10.63
2023-03-12T23:42:27.426Z,10.71
2023-03-12T23:44:54.169Z,10.57
2023-03-12T23:47:24.038Z,10.42
2023-03-12T23:49:56.569Z,10.72
2023-03-12T23:52:26.805Z,10.62
2023-03-12T23:54:53.503Z,10.69
2023-03-12T23:57:26.389Z,10.72
2023-03-12T23:59:56.065Z,10.58
